sensor_id;sensor_type;location;lat;lon;timestamp;P1;durP1;ratioP1;P2;durP2;ratioP2
39654;SDS011;25336;59.944;11.010;2023-02-11T00:01:05;27.95;;;11.85;;
39654;SDS011;25336;59.944;11.010;2023-02-11T00:03:36;17.00;;;7.10;;
39654;SDS011;25336;59.944;11.010;2023-02-11T00:06:04;8.38;;;4.15;;
39654;SDS011;25336;59.944;11.010;2023-02-11T00:08:33;7.80;;;3.40;;
39654;SDS011;25336;59.944;11.010;2023-02-11T00:10:59;5.97;;;3.25;;
39654;SDS011;25336;59.944;11.010;2023-02-11T00:13:24;4.40;;;2.70;;
39654;SDS011;25336;59.944;11.010;2023-02-11T00:15:50;6.78;;;3.72;;
39654;SDS011;25336;59.944;11.010;2023-02-11T00:18:16;10.23;;;5.05;;
39654;SDS011;25336;59.944;11.010;2023-02-11T00:20:42;12.90;;;5.07;;
39654;SDS011;25336;59.944;11.010;2023-02-11T00:23:08;11.50;;;4.65;;
39654;SDS011;25336;59.944;11.010;2023-02-11T00:25:37;9.52;;;4.50;;
39654;SDS011;25336;59.944;11.010;2023-02-11T00:28:07;5.57;;;2.95;;
39654;SDS011;25336;59.944;11.010;2023-02-11T00:30:33;11.20;;;5.03;;
39654;SDS011;25336;59.944;11.010;2023-02-11T00:32:59;16.27;;;5.30;;
39654;SDS011;25336;59.944;11.010;2023-02-11T00:35:24;15.98;;;6.07;;
39654;SDS011;25336;59.944;11.010;2023-02-11T00:37:51;14.98;;;6.63;;
39654;SDS011;25336;59.944;11.010;2023-02-11T00:40:18;13.07;;;6.63;;
39654;SDS011;25336;59.944;11.010;2023-02-11T00:42:43;14.77;;;7.50;;
39654;SDS011;25336;59.944;11.010;2023-02-11T00:45:10;10.95;;;6.43;;
39654;SDS011;25336;59.944;11.010;2023-02-11T00:47:36;8.30;;;5.18;;
39654;SDS011;25336;59.944;11.010;2023-02-11T00:50:02;3.58;;;2.60;;
39654;SDS011;25336;59.944;11.010;2023-02-11T00:52:29;6.60;;;3.88;;
39654;SDS011;25336;59.944;11.010;2023-02-11T00:54:55;2.90;;;2.35;;
39654;SDS011;25336;59.944;11.010;2023-02-11T00:57:21;2.20;;;1.80;;
39654;SDS011;25336;59.944;11.010;2023-02-11T00:59:47;1.35;;;1.23;;
39654;SDS011;25336;59.944;11.010;2023-02-11T01:02:12;1.67;;;1.50;;
39654;SDS011;25336;59.944;11.010;2023-02-11T01:04:38;5.88;;;1.50;;
39654;SDS011;25336;59.944;11.010;2023-02-11T01:07:04;1.88;;;1.20;;
39654;SDS011;25336;59.944;11.010;2023-02-11T01:09:29;0.98;;;0.98;;
39654;SDS011;25336;59.944;11.010;2023-02-11T01:11:55;0.90;;;0.90;;
39654;SDS011;25336;59.944;11.010;2023-02-11T01:14:20;1.40;;;1.30;;
39654;SDS011;25336;59.944;11.010;2023-02-11T01:16:46;1.77;;;1.67;;
39654;SDS011;25336;59.944;11.010;2023-02-11T01:19:12;0.80;;;0.80;;
39654;SDS011;25336;59.944;11.010;2023-02-11T01:21:37;0.95;;;0.82;;
39654;SDS011;25336;59.944;11.010;2023-02-11T01:24:03;0.73;;;0.73;;
39654;SDS011;25336;59.944;11.010;2023-02-11T01:26:28;1.27;;;0.90;;
39654;SDS011;25336;59.944;11.010;2023-02-11T01:28:54;0.60;;;0.60;;
39654;SDS011;25336;59.944;11.010;2023-02-11T01:31:20;0.65;;;0.65;;
39654;SDS011;25336;59.944;11.010;2023-02-11T01:33:45;2.65;;;0.60;;
39654;SDS011;25336;59.944;11.010;2023-02-11T01:36:11;1.30;;;0.68;;
39654;SDS011;25336;59.944;11.010;2023-02-11T01:38:37;2.75;;;0.70;;
39654;SDS011;25336;59.944;11.010;2023-02-11T01:41:06;1.58;;;1.08;;
39654;SDS011;25336;59.944;11.010;2023-02-11T01:43:35;1.02;;;0.80;;
39654;SDS011;25336;59.944;11.010;2023-02-11T01:49:06;2.35;;;1.00;;
39654;SDS011;25336;59.944;11.010;2023-02-11T01:51:43;2.53;;;1.00;;
39654;SDS011;25336;59.944;11.010;2023-02-11T01:54:21;1.48;;;1.13;;
39654;SDS011;25336;59.944;11.010;2023-02-11T01:57:09;1.15;;;0.98;;
39654;SDS011;25336;59.944;11.010;2023-02-11T02:05:06;12.32;;;1.48;;
39654;SDS011;25336;59.944;11.010;2023-02-11T02:07:40;1.85;;;1.33;;
39654;SDS011;25336;59.944;11.010;2023-02-11T02:10:30;1.77;;;1.60;;
39654;SDS011;25336;59.944;11.010;2023-02-11T02:12:59;1.20;;;1.10;;
39654;SDS011;25336;59.944;11.010;2023-02-11T02:20:47;2.50;;;1.42;;
39654;SDS011;25336;59.944;11.010;2023-02-11T02:23:25;3.75;;;1.20;;
39654;SDS011;25336;59.944;11.010;2023-02-11T02:29:18;0.52;;;0.52;;
39654;SDS011;25336;59.944;11.010;2023-02-11T02:35:14;0.82;;;0.70;;
39654;SDS011;25336;59.944;11.010;2023-02-11T02:37:55;0.68;;;0.55;;
39654;SDS011;25336;59.944;11.010;2023-02-11T02:40:23;0.93;;;0.60;;
39654;SDS011;25336;59.944;11.010;2023-02-11T02:42:52;0.63;;;0.63;;
39654;SDS011;25336;59.944;11.010;2023-02-11T02:45:20;0.45;;;0.40;;
39654;SDS011;25336;59.944;11.010;2023-02-11T02:47:45;1.65;;;0.60;;
39654;SDS011;25336;59.944;11.010;2023-02-11T02:50:11;0.65;;;0.65;;
39654;SDS011;25336;59.944;11.010;2023-02-11T02:52:41;3.55;;;1.45;;
39654;SDS011;25336;59.944;11.010;2023-02-11T02:55:19;2.20;;;0.60;;
39654;SDS011;25336;59.944;11.010;2023-02-11T03:06:07;1.45;;;0.47;;
39654;SDS011;25336;59.944;11.010;2023-02-11T03:11:55;1.33;;;0.50;;
39654;SDS011;25336;59.944;11.010;2023-02-11T03:14:21;0.90;;;0.65;;
39654;SDS011;25336;59.944;11.010;2023-02-11T03:16:51;0.45;;;0.43;;
39654;SDS011;25336;59.944;11.010;2023-02-11T03:19:20;0.75;;;0.52;;
39654;SDS011;25336;59.944;11.010;2023-02-11T03:21:50;0.52;;;0.52;;
39654;SDS011;25336;59.944;11.010;2023-02-11T03:24:30;0.40;;;0.40;;
39654;SDS011;25336;59.944;11.010;2023-02-11T03:27:19;0.55;;;0.55;;
39654;SDS011;25336;59.944;11.010;2023-02-11T03:29:53;0.85;;;0.73;;
39654;SDS011;25336;59.944;11.010;2023-02-11T03:32:26;1.10;;;0.55;;
39654;SDS011;25336;59.944;11.010;2023-02-11T03:40:39;0.60;;;0.50;;
39654;SDS011;25336;59.944;11.010;2023-02-11T03:43:08;0.70;;;0.70;;
39654;SDS011;25336;59.944;11.010;2023-02-11T03:45:35;0.50;;;0.50;;
39654;SDS011;25336;59.944;11.010;2023-02-11T03:48:04;0.70;;;0.60;;
39654;SDS011;25336;59.944;11.010;2023-02-11T03:50:35;0.95;;;0.57;;
39654;SDS011;25336;59.944;11.010;2023-02-11T03:53:02;0.60;;;0.60;;
39654;SDS011;25336;59.944;11.010;2023-02-11T03:55:30;0.70;;;0.68;;
39654;SDS011;25336;59.944;11.010;2023-02-11T03:58:00;1.13;;;0.60;;
39654;SDS011;25336;59.944;11.010;2023-02-11T04:00:36;0.47;;;0.47;;
39654;SDS011;25336;59.944;11.010;2023-02-11T04:03:03;1.00;;;0.60;;
39654;SDS011;25336;59.944;11.010;2023-02-11T04:05:29;1.77;;;0.82;;
39654;SDS011;25336;59.944;11.010;2023-02-11T04:07:55;0.95;;;0.60;;
39654;SDS011;25336;59.944;11.010;2023-02-11T04:10:21;0.80;;;0.70;;
39654;SDS011;25336;59.944;11.010;2023-02-11T04:12:47;0.98;;;0.70;;
39654;SDS011;25336;59.944;11.010;2023-02-11T04:15:12;1.00;;;0.63;;
39654;SDS011;25336;59.944;11.010;2023-02-11T04:17:38;1.05;;;0.60;;
39654;SDS011;25336;59.944;11.010;2023-02-11T04:20:04;1.17;;;0.80;;
39654;SDS011;25336;59.944;11.010;2023-02-11T04:22:30;1.13;;;0.70;;
39654;SDS011;25336;59.944;11.010;2023-02-11T04:24:55;2.05;;;0.90;;
39654;SDS011;25336;59.944;11.010;2023-02-11T04:27:21;0.50;;;0.50;;
39654;SDS011;25336;59.944;11.010;2023-02-11T04:29:46;3.03;;;0.98;;
39654;SDS011;25336;59.944;11.010;2023-02-11T04:32:12;0.50;;;0.50;;
39654;SDS011;25336;59.944;11.010;2023-02-11T04:34:38;0.70;;;0.70;;
39654;SDS011;25336;59.944;11.010;2023-02-11T04:37:04;1.05;;;0.63;;
39654;SDS011;25336;59.944;11.010;2023-02-11T04:39:29;1.60;;;0.60;;
39654;SDS011;25336;59.944;11.010;2023-02-11T04:41:55;0.70;;;0.60;;
39654;SDS011;25336;59.944;11.010;2023-02-11T04:44:21;0.63;;;0.63;;
39654;SDS011;25336;59.944;11.010;2023-02-11T04:46:46;1.70;;;0.80;;
39654;SDS011;25336;59.944;11.010;2023-02-11T04:49:12;1.60;;;0.80;;
39654;SDS011;25336;59.944;11.010;2023-02-11T04:51:39;1.95;;;1.02;;
39654;SDS011;25336;59.944;11.010;2023-02-11T04:54:05;1.40;;;1.25;;
39654;SDS011;25336;59.944;11.010;2023-02-11T04:56:31;2.65;;;0.90;;
39654;SDS011;25336;59.944;11.010;2023-02-11T04:58:56;1.30;;;0.60;;
39654;SDS011;25336;59.944;11.010;2023-02-11T05:01:22;1.35;;;1.00;;
39654;SDS011;25336;59.944;11.010;2023-02-11T05:03:48;0.70;;;0.70;;
39654;SDS011;25336;59.944;11.010;2023-02-11T05:06:13;1.10;;;0.60;;
39654;SDS011;25336;59.944;11.010;2023-02-11T05:08:39;0.65;;;0.65;;
39654;SDS011;25336;59.944;11.010;2023-02-11T05:11:05;1.40;;;0.90;;
39654;SDS011;25336;59.944;11.010;2023-02-11T05:13:32;0.63;;;0.60;;
39654;SDS011;25336;59.944;11.010;2023-02-11T05:15:58;0.65;;;0.60;;
39654;SDS011;25336;59.944;11.010;2023-02-11T05:18:23;0.50;;;0.50;;
39654;SDS011;25336;59.944;11.010;2023-02-11T05:20:49;1.52;;;0.70;;
39654;SDS011;25336;59.944;11.010;2023-02-11T05:23:14;1.52;;;0.95;;
39654;SDS011;25336;59.944;11.010;2023-02-11T05:25:40;2.38;;;1.10;;
39654;SDS011;25336;59.944;11.010;2023-02-11T05:28:05;2.92;;;1.50;;
39654;SDS011;25336;59.944;11.010;2023-02-11T05:30:31;2.67;;;1.50;;
39654;SDS011;25336;59.944;11.010;2023-02-11T05:32:57;2.95;;;1.83;;
39654;SDS011;25336;59.944;11.010;2023-02-11T05:35:23;3.53;;;1.75;;
39654;SDS011;25336;59.944;11.010;2023-02-11T05:37:48;3.72;;;2.13;;
39654;SDS011;25336;59.944;11.010;2023-02-11T05:40:14;4.82;;;2.13;;
39654;SDS011;25336;59.944;11.010;2023-02-11T05:42:40;4.45;;;2.17;;
39654;SDS011;25336;59.944;11.010;2023-02-11T05:45:06;4.25;;;2.47;;
39654;SDS011;25336;59.944;11.010;2023-02-11T05:47:31;3.22;;;1.90;;
39654;SDS011;25336;59.944;11.010;2023-02-11T05:49:57;3.38;;;2.38;;
39654;SDS011;25336;59.944;11.010;2023-02-11T05:52:23;3.95;;;2.30;;
39654;SDS011;25336;59.944;11.010;2023-02-11T05:54:49;3.97;;;2.17;;
39654;SDS011;25336;59.944;11.010;2023-02-11T05:57:14;6.13;;;3.30;;
39654;SDS011;25336;59.944;11.010;2023-02-11T05:59:40;2.70;;;2.03;;
39654;SDS011;25336;59.944;11.010;2023-02-11T06:02:06;6.18;;;2.28;;
39654;SDS011;25336;59.944;11.010;2023-02-11T06:04:33;2.13;;;1.92;;
39654;SDS011;25336;59.944;11.010;2023-02-11T06:06:59;2.53;;;1.85;;
39654;SDS011;25336;59.944;11.010;2023-02-11T06:09:25;2.85;;;2.08;;
39654;SDS011;25336;59.944;11.010;2023-02-11T06:11:51;4.15;;;1.98;;
39654;SDS011;25336;59.944;11.010;2023-02-11T06:14:16;3.58;;;2.30;;
39654;SDS011;25336;59.944;11.010;2023-02-11T06:16:42;5.15;;;2.65;;
39654;SDS011;25336;59.944;11.010;2023-02-11T06:19:08;3.83;;;2.58;;
39654;SDS011;25336;59.944;11.010;2023-02-11T06:21:34;5.15;;;2.90;;
39654;SDS011;25336;59.944;11.010;2023-02-11T06:23:59;3.67;;;2.42;;
39654;SDS011;25336;59.944;11.010;2023-02-11T06:26:25;2.58;;;2.15;;
39654;SDS011;25336;59.944;11.010;2023-02-11T06:28:50;6.72;;;2.20;;
39654;SDS011;25336;59.944;11.010;2023-02-11T06:31:16;3.90;;;2.17;;
39654;SDS011;25336;59.944;11.010;2023-02-11T06:33:42;3.28;;;2.13;;
39654;SDS011;25336;59.944;11.010;2023-02-11T06:36:15;2.58;;;1.92;;
39654;SDS011;25336;59.944;11.010;2023-02-11T06:38:42;5.35;;;2.42;;
39654;SDS011;25336;59.944;11.010;2023-02-11T06:41:09;4.80;;;1.88;;
39654;SDS011;25336;59.944;11.010;2023-02-11T06:43:35;3.03;;;1.90;;
39654;SDS011;25336;59.944;11.010;2023-02-11T06:46:01;7.05;;;2.33;;
39654;SDS011;25336;59.944;11.010;2023-02-11T06:48:27;3.72;;;2.33;;
39654;SDS011;25336;59.944;11.010;2023-02-11T06:50:52;5.88;;;2.40;;
39654;SDS011;25336;59.944;11.010;2023-02-11T06:53:18;6.90;;;2.65;;
39654;SDS011;25336;59.944;11.010;2023-02-11T06:55:43;7.05;;;2.88;;
39654;SDS011;25336;59.944;11.010;2023-02-11T06:58:09;4.80;;;2.88;;
39654;SDS011;25336;59.944;11.010;2023-02-11T07:00:35;5.85;;;3.45;;
39654;SDS011;25336;59.944;11.010;2023-02-11T07:03:01;9.65;;;6.57;;
39654;SDS011;25336;59.944;11.010;2023-02-11T07:05:26;6.53;;;4.90;;
39654;SDS011;25336;59.944;11.010;2023-02-11T07:07:52;5.35;;;3.90;;
39654;SDS011;25336;59.944;11.010;2023-02-11T07:10:18;5.32;;;3.72;;
39654;SDS011;25336;59.944;11.010;2023-02-11T07:12:43;6.47;;;2.88;;
39654;SDS011;25336;59.944;11.010;2023-02-11T07:15:09;4.72;;;2.33;;
39654;SDS011;25336;59.944;11.010;2023-02-11T07:17:34;4.93;;;2.45;;
39654;SDS011;25336;59.944;11.010;2023-02-11T07:20:00;3.22;;;2.55;;
39654;SDS011;25336;59.944;11.010;2023-02-11T07:22:26;7.30;;;2.75;;
39654;SDS011;25336;59.944;11.010;2023-02-11T07:24:52;6.18;;;3.00;;
39654;SDS011;25336;59.944;11.010;2023-02-11T07:27:17;5.93;;;2.40;;
39654;SDS011;25336;59.944;11.010;2023-02-11T07:29:43;6.22;;;3.08;;
39654;SDS011;25336;59.944;11.010;2023-02-11T07:32:10;3.67;;;2.35;;
39654;SDS011;25336;59.944;11.010;2023-02-11T07:34:37;5.05;;;2.60;;
39654;SDS011;25336;59.944;11.010;2023-02-11T07:37:02;5.15;;;3.17;;
39654;SDS011;25336;59.944;11.010;2023-02-11T07:39:28;4.05;;;2.55;;
39654;SDS011;25336;59.944;11.010;2023-02-11T07:41:54;9.65;;;2.88;;
39654;SDS011;25336;59.944;11.010;2023-02-11T07:44:20;6.45;;;4.10;;
39654;SDS011;25336;59.944;11.010;2023-02-11T07:46:46;9.90;;;3.83;;
39654;SDS011;25336;59.944;11.010;2023-02-11T07:49:13;7.22;;;3.30;;
39654;SDS011;25336;59.944;11.010;2023-02-11T07:51:39;4.35;;;2.83;;
39654;SDS011;25336;59.944;11.010;2023-02-11T07:54:05;5.35;;;3.35;;
39654;SDS011;25336;59.944;11.010;2023-02-11T07:56:31;8.32;;;3.40;;
39654;SDS011;25336;59.944;11.010;2023-02-11T07:59:00;6.65;;;3.60;;
39654;SDS011;25336;59.944;11.010;2023-02-11T08:01:29;7.95;;;4.18;;
39654;SDS011;25336;59.944;11.010;2023-02-11T08:03:56;7.22;;;4.63;;
39654;SDS011;25336;59.944;11.010;2023-02-11T08:06:24;15.85;;;4.25;;
39654;SDS011;25336;59.944;11.010;2023-02-11T08:08:52;6.43;;;3.72;;
39654;SDS011;25336;59.944;11.010;2023-02-11T08:11:19;3.78;;;3.15;;
39654;SDS011;25336;59.944;11.010;2023-02-11T08:13:44;6.53;;;3.55;;
39654;SDS011;25336;59.944;11.010;2023-02-11T08:18:49;7.88;;;4.15;;
39654;SDS011;25336;59.944;11.010;2023-02-11T08:21:16;7.68;;;4.60;;
39654;SDS011;25336;59.944;11.010;2023-02-11T08:23:42;5.07;;;3.42;;
39654;SDS011;25336;59.944;11.010;2023-02-11T08:26:09;9.98;;;4.55;;
39654;SDS011;25336;59.944;11.010;2023-02-11T08:28:38;6.00;;;3.35;;
39654;SDS011;25336;59.944;11.010;2023-02-11T08:31:05;5.20;;;3.53;;
39654;SDS011;25336;59.944;11.010;2023-02-11T08:33:33;9.18;;;4.75;;
39654;SDS011;25336;59.944;11.010;2023-02-11T08:35:59;7.00;;;4.93;;
39654;SDS011;25336;59.944;11.010;2023-02-11T08:38:24;7.85;;;3.55;;
39654;SDS011;25336;59.944;11.010;2023-02-11T08:40:50;5.85;;;3.47;;
39654;SDS011;25336;59.944;11.010;2023-02-11T08:43:16;5.65;;;3.45;;
39654;SDS011;25336;59.944;11.010;2023-02-11T08:45:41;6.15;;;3.80;;
39654;SDS011;25336;59.944;11.010;2023-02-11T08:48:08;6.38;;;3.85;;
39654;SDS011;25336;59.944;11.010;2023-02-11T08:50:33;6.75;;;4.05;;
39654;SDS011;25336;59.944;11.010;2023-02-11T08:53:02;8.73;;;4.28;;
39654;SDS011;25336;59.944;11.010;2023-02-11T08:55:28;9.20;;;6.43;;
39654;SDS011;25336;59.944;11.010;2023-02-11T08:57:54;9.80;;;7.25;;
39654;SDS011;25336;59.944;11.010;2023-02-11T09:00:19;12.75;;;6.82;;
39654;SDS011;25336;59.944;11.010;2023-02-11T09:02:45;12.45;;;7.22;;
39654;SDS011;25336;59.944;11.010;2023-02-11T09:05:11;10.65;;;5.22;;
39654;SDS011;25336;59.944;11.010;2023-02-11T09:07:36;7.75;;;5.32;;
39654;SDS011;25336;59.944;11.010;2023-02-11T09:10:02;8.60;;;4.22;;
39654;SDS011;25336;59.944;11.010;2023-02-11T09:12:28;7.00;;;3.65;;
39654;SDS011;25336;59.944;11.010;2023-02-11T09:14:53;7.65;;;3.70;;
39654;SDS011;25336;59.944;11.010;2023-02-11T09:17:19;6.20;;;4.05;;
39654;SDS011;25336;59.944;11.010;2023-02-11T09:19:44;7.97;;;4.45;;
39654;SDS011;25336;59.944;11.010;2023-02-11T09:22:10;7.40;;;3.63;;
39654;SDS011;25336;59.944;11.010;2023-02-11T09:24:35;8.20;;;4.10;;
39654;SDS011;25336;59.944;11.010;2023-02-11T09:27:01;7.05;;;3.47;;
39654;SDS011;25336;59.944;11.010;2023-02-11T09:29:26;9.38;;;3.50;;
39654;SDS011;25336;59.944;11.010;2023-02-11T09:31:52;6.43;;;3.60;;
39654;SDS011;25336;59.944;11.010;2023-02-11T09:34:17;6.38;;;3.67;;
39654;SDS011;25336;59.944;11.010;2023-02-11T09:36:43;9.88;;;5.20;;
39654;SDS011;25336;59.944;11.010;2023-02-11T09:39:11;9.55;;;5.93;;
39654;SDS011;25336;59.944;11.010;2023-02-11T09:44:49;7.78;;;4.80;;
39654;SDS011;25336;59.944;11.010;2023-02-11T09:47:22;14.48;;;7.95;;
39654;SDS011;25336;59.944;11.010;2023-02-11T09:50:09;8.05;;;5.20;;
39654;SDS011;25336;59.944;11.010;2023-02-11T09:52:39;10.75;;;5.93;;
39654;SDS011;25336;59.944;11.010;2023-02-11T09:55:22;10.55;;;5.60;;
39654;SDS011;25336;59.944;11.010;2023-02-11T09:57:52;4.63;;;2.95;;
39654;SDS011;25336;59.944;11.010;2023-02-11T10:14:51;6.43;;;3.60;;
39654;SDS011;25336;59.944;11.010;2023-02-11T10:20:05;9.10;;;3.72;;
39654;SDS011;25336;59.944;11.010;2023-02-11T10:22:51;6.05;;;3.20;;
39654;SDS011;25336;59.944;11.010;2023-02-11T10:25:26;6.53;;;3.83;;
39654;SDS011;25336;59.944;11.010;2023-02-11T10:27:53;8.82;;;3.20;;
39654;SDS011;25336;59.944;11.010;2023-02-11T10:30:30;6.35;;;3.28;;
39654;SDS011;25336;59.944;11.010;2023-02-11T10:33:02;5.43;;;3.10;;
39654;SDS011;25336;59.944;11.010;2023-02-11T10:35:30;5.22;;;2.83;;
39654;SDS011;25336;59.944;11.010;2023-02-11T10:37:57;4.68;;;2.88;;
39654;SDS011;25336;59.944;11.010;2023-02-11T10:40:24;4.25;;;2.90;;
39654;SDS011;25336;59.944;11.010;2023-02-11T10:42:56;4.90;;;2.63;;
39654;SDS011;25336;59.944;11.010;2023-02-11T10:51:27;6.43;;;2.92;;
39654;SDS011;25336;59.944;11.010;2023-02-11T10:56:35;5.57;;;3.55;;
39654;SDS011;25336;59.944;11.010;2023-02-11T10:59:04;4.70;;;2.90;;
39654;SDS011;25336;59.944;11.010;2023-02-11T11:01:44;5.82;;;3.20;;
39654;SDS011;25336;59.944;11.010;2023-02-11T11:12:46;7.43;;;2.90;;
39654;SDS011;25336;59.944;11.010;2023-02-11T11:18:08;6.10;;;2.80;;
39654;SDS011;25336;59.944;11.010;2023-02-11T11:20:43;7.38;;;2.45;;
39654;SDS011;25336;59.944;11.010;2023-02-11T11:23:21;3.58;;;2.47;;
39654;SDS011;25336;59.944;11.010;2023-02-11T11:28:35;6.30;;;2.53;;
39654;SDS011;25336;59.944;11.010;2023-02-11T11:31:04;5.10;;;2.80;;
39654;SDS011;25336;59.944;11.010;2023-02-11T11:33:37;6.53;;;3.40;;
39654;SDS011;25336;59.944;11.010;2023-02-11T11:36:07;5.90;;;2.90;;
39654;SDS011;25336;59.944;11.010;2023-02-11T11:38:42;5.80;;;2.85;;
39654;SDS011;25336;59.944;11.010;2023-02-11T11:43:52;8.25;;;3.60;;
39654;SDS011;25336;59.944;11.010;2023-02-11T11:46:24;6.30;;;3.10;;
39654;SDS011;25336;59.944;11.010;2023-02-11T11:48:55;3.53;;;2.42;;
39654;SDS011;25336;59.944;11.010;2023-02-11T11:51:27;3.85;;;2.55;;
39654;SDS011;25336;59.944;11.010;2023-02-11T11:56:33;4.68;;;2.78;;
39654;SDS011;25336;59.944;11.010;2023-02-11T11:59:10;4.82;;;2.63;;
39654;SDS011;25336;59.944;11.010;2023-02-11T12:04:36;6.28;;;2.45;;
39654;SDS011;25336;59.944;11.010;2023-02-11T12:07:31;4.10;;;2.33;;
39654;SDS011;25336;59.944;11.010;2023-02-11T12:23:42;3.25;;;1.77;;
39654;SDS011;25336;59.944;11.010;2023-02-11T12:26:23;3.97;;;2.05;;
39654;SDS011;25336;59.944;11.010;2023-02-11T12:29:22;4.93;;;2.55;;
39654;SDS011;25336;59.944;11.010;2023-02-11T12:32:16;5.25;;;2.53;;
39654;SDS011;25336;59.944;11.010;2023-02-11T12:40:41;6.63;;;2.55;;
39654;SDS011;25336;59.944;11.010;2023-02-11T12:43:40;5.78;;;2.95;;
39654;SDS011;25336;59.944;11.010;2023-02-11T12:49:19;4.30;;;2.15;;
39654;SDS011;25336;59.944;11.010;2023-02-11T12:55:00;6.03;;;1.90;;
39654;SDS011;25336;59.944;11.010;2023-02-11T12:57:33;4.38;;;2.70;;
39654;SDS011;25336;59.944;11.010;2023-02-11T13:00:03;4.20;;;2.20;;
39654;SDS011;25336;59.944;11.010;2023-02-11T13:05:39;4.93;;;2.65;;
39654;SDS011;25336;59.944;11.010;2023-02-11T13:08:21;4.32;;;2.55;;
39654;SDS011;25336;59.944;11.010;2023-02-11T13:10:54;4.20;;;2.75;;
39654;SDS011;25336;59.944;11.010;2023-02-11T13:16:02;4.97;;;2.90;;
39654;SDS011;25336;59.944;11.010;2023-02-11T13:24:00;9.57;;;4.85;;
39654;SDS011;25336;59.944;11.010;2023-02-11T13:29:30;4.85;;;3.15;;
39654;SDS011;25336;59.944;11.010;2023-02-11T13:37:05;7.13;;;3.60;;
39654;SDS011;25336;59.944;11.010;2023-02-11T13:39:59;7.10;;;3.85;;
39654;SDS011;25336;59.944;11.010;2023-02-11T13:42:28;7.82;;;4.07;;
39654;SDS011;25336;59.944;11.010;2023-02-11T13:44:55;6.13;;;3.05;;
39654;SDS011;25336;59.944;11.010;2023-02-11T13:47:24;5.63;;;3.40;;
39654;SDS011;25336;59.944;11.010;2023-02-11T13:49:59;6.22;;;2.67;;
39654;SDS011;25336;59.944;11.010;2023-02-11T13:52:30;5.18;;;3.10;;
39654;SDS011;25336;59.944;11.010;2023-02-11T13:55:08;7.97;;;3.20;;
39654;SDS011;25336;59.944;11.010;2023-02-11T13:57:45;6.40;;;3.10;;
39654;SDS011;25336;59.944;11.010;2023-02-11T14:14:01;5.25;;;3.40;;
39654;SDS011;25336;59.944;11.010;2023-02-11T14:16:27;6.93;;;2.85;;
39654;SDS011;25336;59.944;11.010;2023-02-11T14:34:54;4.05;;;2.83;;
39654;SDS011;25336;59.944;11.010;2023-02-11T14:37:53;3.83;;;3.22;;
39654;SDS011;25336;59.944;11.010;2023-02-11T14:40:25;3.88;;;2.38;;
39654;SDS011;25336;59.944;11.010;2023-02-11T14:43:22;3.53;;;2.72;;
39654;SDS011;25336;59.944;11.010;2023-02-11T14:45:52;3.72;;;3.33;;
39654;SDS011;25336;59.944;11.010;2023-02-11T14:48:19;6.63;;;2.88;;
39654;SDS011;25336;59.944;11.010;2023-02-11T14:50:52;4.90;;;2.17;;
39654;SDS011;25336;59.944;11.010;2023-02-11T14:53:27;5.45;;;3.00;;
39654;SDS011;25336;59.944;11.010;2023-02-11T14:55:55;4.97;;;3.40;;
39654;SDS011;25336;59.944;11.010;2023-02-11T14:58:22;3.97;;;2.63;;
39654;SDS011;25336;59.944;11.010;2023-02-11T15:00:55;5.38;;;2.97;;
39654;SDS011;25336;59.944;11.010;2023-02-11T15:03:31;4.47;;;2.90;;
39654;SDS011;25336;59.944;11.010;2023-02-11T15:05:57;7.15;;;3.53;;
39654;SDS011;25336;59.944;11.010;2023-02-11T15:08:25;5.05;;;2.90;;
39654;SDS011;25336;59.944;11.010;2023-02-11T15:10:52;5.22;;;3.33;;
39654;SDS011;25336;59.944;11.010;2023-02-11T15:13:20;6.15;;;3.42;;
39654;SDS011;25336;59.944;11.010;2023-02-11T15:15:51;7.75;;;4.53;;
39654;SDS011;25336;59.944;11.010;2023-02-11T15:18:21;8.05;;;4.32;;
39654;SDS011;25336;59.944;11.010;2023-02-11T15:20:53;8.07;;;4.50;;
39654;SDS011;25336;59.944;11.010;2023-02-11T15:23:20;8.60;;;4.32;;
39654;SDS011;25336;59.944;11.010;2023-02-11T15:25:48;8.77;;;4.95;;
39654;SDS011;25336;59.944;11.010;2023-02-11T15:30:54;13.40;;;7.03;;
39654;SDS011;25336;59.944;11.010;2023-02-11T15:33:37;13.75;;;6.32;;
39654;SDS011;25336;59.944;11.010;2023-02-11T15:36:03;11.90;;;8.00;;
39654;SDS011;25336;59.944;11.010;2023-02-11T15:38:29;12.32;;;7.53;;
39654;SDS011;25336;59.944;11.010;2023-02-11T15:40:56;10.43;;;6.32;;
39654;SDS011;25336;59.944;11.010;2023-02-11T15:43:43;9.85;;;7.38;;
39654;SDS011;25336;59.944;11.010;2023-02-11T15:46:12;14.00;;;7.55;;
39654;SDS011;25336;59.944;11.010;2023-02-11T15:48:47;13.52;;;8.57;;
39654;SDS011;25336;59.944;11.010;2023-02-11T15:53:55;13.00;;;9.60;;
39654;SDS011;25336;59.944;11.010;2023-02-11T15:56:24;15.90;;;10.23;;
39654;SDS011;25336;59.944;11.010;2023-02-11T15:58:57;13.82;;;8.68;;
39654;SDS011;25336;59.944;11.010;2023-02-11T16:01:28;17.38;;;9.85;;
39654;SDS011;25336;59.944;11.010;2023-02-11T16:03:56;16.30;;;11.30;;
39654;SDS011;25336;59.944;11.010;2023-02-11T16:06:26;32.58;;;18.08;;
39654;SDS011;25336;59.944;11.010;2023-02-11T16:09:04;52.20;;;24.27;;
39654;SDS011;25336;59.944;11.010;2023-02-11T16:16:54;60.88;;;27.88;;
39654;SDS011;25336;59.944;11.010;2023-02-11T16:19:26;55.20;;;31.08;;
39654;SDS011;25336;59.944;11.010;2023-02-11T16:21:53;70.63;;;35.10;;
39654;SDS011;25336;59.944;11.010;2023-02-11T16:26:52;70.47;;;33.08;;
39654;SDS011;25336;59.944;11.010;2023-02-11T16:29:24;79.40;;;34.90;;
39654;SDS011;25336;59.944;11.010;2023-02-11T16:32:05;69.07;;;30.48;;
39654;SDS011;25336;59.944;11.010;2023-02-11T16:34:32;63.58;;;28.70;;
39654;SDS011;25336;59.944;11.010;2023-02-11T16:36:58;45.60;;;22.65;;
39654;SDS011;25336;59.944;11.010;2023-02-11T16:39:28;43.30;;;22.00;;
39654;SDS011;25336;59.944;11.010;2023-02-11T16:41:54;59.85;;;29.38;;
39654;SDS011;25336;59.944;11.010;2023-02-11T16:44:20;57.50;;;31.33;;
39654;SDS011;25336;59.944;11.010;2023-02-11T16:46:46;58.88;;;31.20;;
39654;SDS011;25336;59.944;11.010;2023-02-11T16:49:16;34.38;;;18.70;;
39654;SDS011;25336;59.944;11.010;2023-02-11T16:51:51;21.58;;;12.27;;
39654;SDS011;25336;59.944;11.010;2023-02-11T16:54:20;23.30;;;11.93;;
39654;SDS011;25336;59.944;11.010;2023-02-11T16:56:46;19.60;;;9.57;;
39654;SDS011;25336;59.944;11.010;2023-02-11T16:59:11;10.38;;;7.22;;
39654;SDS011;25336;59.944;11.010;2023-02-11T17:01:37;14.70;;;7.75;;
39654;SDS011;25336;59.944;11.010;2023-02-11T17:04:05;15.38;;;7.85;;
39654;SDS011;25336;59.944;11.010;2023-02-11T17:06:31;14.13;;;6.80;;
39654;SDS011;25336;59.944;11.010;2023-02-11T17:08:58;8.20;;;4.95;;
39654;SDS011;25336;59.944;11.010;2023-02-11T17:11:23;11.38;;;5.35;;
39654;SDS011;25336;59.944;11.010;2023-02-11T17:13:49;11.88;;;6.72;;
39654;SDS011;25336;59.944;11.010;2023-02-11T17:16:16;10.70;;;6.75;;
39654;SDS011;25336;59.944;11.010;2023-02-11T17:18:43;11.13;;;6.55;;
39654;SDS011;25336;59.944;11.010;2023-02-11T17:21:09;9.73;;;6.57;;
39654;SDS011;25336;59.944;11.010;2023-02-11T17:23:34;7.80;;;5.45;;
39654;SDS011;25336;59.944;11.010;2023-02-11T17:26:00;9.30;;;6.28;;
39654;SDS011;25336;59.944;11.010;2023-02-11T17:28:25;12.55;;;8.63;;
39654;SDS011;25336;59.944;11.010;2023-02-11T17:30:51;17.63;;;10.85;;
39654;SDS011;25336;59.944;11.010;2023-02-11T17:33:17;20.52;;;12.20;;
39654;SDS011;25336;59.944;11.010;2023-02-11T17:35:43;21.90;;;12.40;;
39654;SDS011;25336;59.944;11.010;2023-02-11T17:38:08;16.15;;;10.95;;
39654;SDS011;25336;59.944;11.010;2023-02-11T17:40:34;18.63;;;11.95;;